createdAt,value
2022-10-05T11:57:49.620Z,3.30
2022-10-05T12:03:03.666Z,5.50
2022-10-05T12:08:15.882Z,6.20
2022-10-05T12:13:20.148Z,7.30
2022-10-05T12:18:31.069Z,4.40
2022-10-05T12:23:52.280Z,4.00
2022-10-05T12:28:55.836Z,3.90
2022-10-05T12:34:04.134Z,8.10
2022-10-05T12:39:20.768Z,5.20
2022-10-05T12:44:35.281Z,3.70
2022-10-05T12:49:45.727Z,13.50
2022-10-05T12:54:47.167Z,4.80
2022-10-05T12:59:58.750Z,5.90
2022-10-05T13:05:13.636Z,4.00
2022-10-05T13:10:15.041Z,4.80
2022-10-05T13:15:16.583Z,5.00
2022-10-05T13:20:24.067Z,4.50
2022-10-05T13:25:34.670Z,3.10
2022-10-05T13:30:39.987Z,5.20
2022-10-05T13:35:46.497Z,3.50
2022-10-05T13:41:06.711Z,7.00
2022-10-05T13:46:15.853Z,4.50
2022-10-05T13:51:37.972Z,8.20
2022-10-05T13:56:42.711Z,7.90
2022-10-05T14:01:49.519Z,4.10
2022-10-05T14:06:54.414Z,7.80
2022-10-05T14:11:58.913Z,7.10
2022-10-05T14:22:24.770Z,5.90
2022-10-05T14:27:27.557Z,5.80
2022-10-05T14:32:33.167Z,4.80
2022-10-05T14:37:46.833Z,5.90
2022-10-05T14:42:49.371Z,9.70
2022-10-05T14:47:52.731Z,6.10
2022-10-05T14:52:59.989Z,7.80
2022-10-05T14:58:19.526Z,5.70
2022-10-05T15:03:27.919Z,12.80
2022-10-05T15:08:30.492Z,8.40
2022-10-05T15:13:37.639Z,6.10
2022-10-05T15:18:57.585Z,5.10
2022-10-05T15:24:20.175Z,5.30
2022-10-05T15:29:36.902Z,5.50
2022-10-05T15:34:52.209Z,5.50
2022-10-05T15:39:57.949Z,7.50
2022-10-05T15:45:20.259Z,10.40
2022-10-05T15:50:29.722Z,8.80
2022-10-05T15:55:52.130Z,18.60
2022-10-05T16:01:07.964Z,9.50
2022-10-05T16:06:35.522Z,8.80
2022-10-05T16:11:37.441Z,8.00
2022-10-05T16:16:53.644Z,6.30
2022-10-05T16:22:05.929Z,8.60
2022-10-05T16:27:16.901Z,8.70
2022-10-05T16:32:26.317Z,8.70
2022-10-05T16:37:34.110Z,8.90
2022-10-05T16:42:38.824Z,6.30
2022-10-05T16:47:44.096Z,7.00
2022-10-05T16:52:47.883Z,7.20
2022-10-05T16:57:55.527Z,8.10
2022-10-05T17:03:15.678Z,18.30
2022-10-05T17:08:21.514Z,12.00
2022-10-05T17:13:31.721Z,12.70
2022-10-05T17:18:39.008Z,13.20
2022-10-05T17:23:50.340Z,11.70
2022-10-05T17:28:51.825Z,8.30
2022-10-05T17:33:59.365Z,11.60
2022-10-05T17:39:12.929Z,19.20
2022-10-05T17:44:16.183Z,11.40
2022-10-05T17:49:17.851Z,13.90
2022-10-05T17:54:48.159Z,17.60
2022-10-05T17:59:52.800Z,22.10
2022-10-05T18:05:16.234Z,38.30
2022-10-05T18:10:20.662Z,25.00
2022-10-05T18:15:25.245Z,21.10
2022-10-05T18:20:31.580Z,31.50
2022-10-05T18:26:01.407Z,25.90
2022-10-05T18:31:18.779Z,17.90
2022-10-05T18:36:37.647Z,27.90
2022-10-05T18:41:51.138Z,26.00
2022-10-05T18:47:11.453Z,18.80
2022-10-05T18:52:22.336Z,21.40
2022-10-05T18:57:35.802Z,28.00
2022-10-05T19:02:43.007Z,25.40
2022-10-05T19:07:47.808Z,32.90
2022-10-05T19:12:52.214Z,25.40
2022-10-05T19:17:54.537Z,17.60
2022-10-05T19:23:03.329Z,29.60
2022-10-05T19:28:17.582Z,12.30
2022-10-05T19:33:32.290Z,14.50
2022-10-05T19:38:52.394Z,16.80
2022-10-05T19:44:06.683Z,19.00
2022-10-05T19:49:11.214Z,12.80
2022-10-05T19:54:16.214Z,7.90
2022-10-05T19:59:19.031Z,10.10
2022-10-05T20:04:34.329Z,12.60
2022-10-05T20:09:54.446Z,7.40
2022-10-05T20:15:24.425Z,38.90
2022-10-05T20:20:28.910Z,10.70
2022-10-05T20:25:31.486Z,7.20
2022-10-05T20:30:33.930Z,11.50
2022-10-05T20:35:35.402Z,10.40
2022-10-05T20:40:36.927Z,8.50
2022-10-05T20:45:43.175Z,8.40
2022-10-05T20:50:44.670Z,13.30
2022-10-05T20:55:46.097Z,9.40
2022-10-05T21:01:06.442Z,6.80
2022-10-05T21:06:08.521Z,12.10
2022-10-05T21:11:09.963Z,8.20
2022-10-05T21:16:13.402Z,8.80
2022-10-05T21:21:18.496Z,9.40
2022-10-05T21:26:20.060Z,15.00
2022-10-05T21:31:21.833Z,7.10
2022-10-05T21:36:24.731Z,6.00
2022-10-05T21:41:26.409Z,6.00
2022-10-05T21:46:29.577Z,7.70
2022-10-05T21:51:31.189Z,6.60
2022-10-05T21:56:35.548Z,6.60
2022-10-05T22:01:37.102Z,10.50
2022-10-05T22:06:38.591Z,5.30
2022-10-05T22:11:40.146Z,4.40
2022-10-05T22:16:43.183Z,4.10
2022-10-05T22:21:44.724Z,4.00
2022-10-05T22:26:47.681Z,8.50
2022-10-05T22:31:49.340Z,6.80
2022-10-05T22:36:51.137Z,6.30
2022-10-05T22:41:52.731Z,7.30
2022-10-05T22:46:54.259Z,4.50
2022-10-05T22:51:55.844Z,7.70
2022-10-05T22:56:57.355Z,6.20
2022-10-05T23:01:58.992Z,7.90
2022-10-05T23:07:00.617Z,4.00
2022-10-05T23:12:02.075Z,9.70
2022-10-05T23:17:03.541Z,5.50
2022-10-05T23:22:05.129Z,10.50
2022-10-05T23:27:06.616Z,6.30
2022-10-05T23:32:08.232Z,8.90
2022-10-05T23:37:09.769Z,6.80
2022-10-05T23:42:11.308Z,5.40
2022-10-05T23:47:12.819Z,3.90
2022-10-05T23:52:14.317Z,5.40
2022-10-05T23:57:17.155Z,7.40
